createdAt,value
2023-03-20T00:00:35.086Z,63.30
2023-03-20T00:03:04.272Z,61.00
2023-03-20T00:05:34.464Z,61.50
2023-03-20T00:08:03.022Z,58.40
2023-03-20T00:10:37.230Z,58.60
2023-03-20T00:13:06.897Z,61.00
2023-03-20T00:15:38.445Z,69.40
2023-03-20T00:18:16.525Z,68.80
2023-03-20T00:20:46.613Z,72.80
2023-03-20T00:23:15.528Z,73.70
2023-03-20T00:25:46.965Z,73.30
2023-03-20T00:28:40.887Z,75.20
2023-03-20T00:31:20.478Z,72.20
2023-03-20T00:33:48.950Z,66.70
2023-03-20T00:36:18.660Z,71.70
2023-03-20T00:38:47.059Z,82.80
2023-03-20T00:41:24.700Z,98.90
2023-03-20T00:43:56.611Z,80.80
2023-03-20T00:46:25.554Z,78.30
2023-03-20T00:48:54.080Z,80.60
2023-03-20T00:51:24.016Z,85.70
2023-03-20T00:53:52.332Z,88.50
2023-03-20T00:56:35.815Z,89.00
2023-03-20T00:59:05.406Z,83.80
2023-03-20T01:01:34.078Z,79.60
2023-03-20T01:04:02.440Z,79.30
2023-03-20T01:06:33.121Z,77.50
2023-03-20T01:09:08.592Z,77.90
2023-03-20T01:11:46.163Z,80.20
2023-03-20T01:14:17.034Z,83.30
2023-03-20T01:16:45.863Z,87.70
2023-03-20T01:19:15.580Z,90.50
2023-03-20T01:21:45.429Z,89.90
2023-03-20T01:24:13.937Z,97.20
2023-03-20T01:26:44.025Z,99.90
2023-03-20T01:29:19.967Z,99.90
2023-03-20T01:31:48.572Z,99.90
2023-03-20T01:34:17.517Z,99.90
2023-03-20T01:36:51.339Z,99.90
2023-03-20T01:39:21.796Z,99.90
2023-03-20T01:41:52.327Z,99.90
2023-03-20T01:44:23.259Z,99.90
2023-03-20T01:46:54.058Z,99.90
2023-03-20T01:49:59.218Z,99.90
2023-03-20T01:52:29.111Z,99.90
2023-03-20T01:54:57.501Z,99.90
2023-03-20T01:57:27.217Z,99.90
2023-03-20T02:00:01.716Z,99.90
2023-03-20T02:02:33.086Z,99.90
2023-03-20T02:05:05.563Z,99.90
2023-03-20T02:07:36.562Z,99.90
2023-03-20T02:10:06.919Z,99.90
2023-03-20T02:12:35.868Z,99.90
2023-03-20T02:15:04.852Z,99.90
2023-03-20T02:17:34.081Z,99.90
2023-03-20T02:20:13.786Z,99.90
2023-03-20T02:23:11.484Z,99.90
2023-03-20T02:26:04.042Z,99.90
2023-03-20T02:28:59.624Z,99.90
2023-03-20T02:31:56.641Z,99.90
2023-03-20T02:34:54.402Z,99.90
2023-03-20T02:38:08.253Z,99.90
2023-03-20T02:40:46.165Z,99.90
2023-03-20T02:43:21.388Z,99.90
2023-03-20T02:45:57.115Z,99.90
2023-03-20T02:48:34.403Z,99.90
2023-03-20T02:51:08.614Z,99.90
2023-03-20T02:53:48.288Z,99.90
2023-03-20T02:56:23.399Z,99.90
2023-03-20T02:58:59.555Z,99.90
2023-03-20T03:01:33.367Z,99.90
2023-03-20T03:04:08.951Z,99.90
2023-03-20T03:06:41.163Z,99.90
2023-03-20T03:09:17.663Z,99.90
2023-03-20T03:11:51.803Z,99.90
2023-03-20T03:14:30.376Z,99.90
2023-03-20T03:17:02.065Z,99.90
2023-03-20T03:19:31.595Z,99.90
2023-03-20T03:22:00.054Z,99.90
2023-03-20T03:24:40.680Z,99.90
2023-03-20T03:27:18.791Z,99.90
2023-03-20T03:29:52.617Z,99.90
2023-03-20T03:32:27.892Z,99.90
2023-03-20T03:34:59.801Z,99.90
2023-03-20T03:37:44.010Z,99.90
2023-03-20T03:40:20.986Z,99.90
2023-03-20T03:42:58.062Z,99.90
2023-03-20T03:45:32.918Z,99.90
2023-03-20T03:48:06.903Z,99.90
2023-03-20T03:50:41.711Z,99.90
2023-03-20T03:53:13.389Z,99.90
2023-03-20T03:55:46.009Z,99.90
2023-03-20T03:58:28.438Z,99.90
2023-03-20T04:00:59.809Z,99.90
2023-03-20T04:03:34.079Z,99.90
2023-03-20T04:06:04.573Z,99.90
2023-03-20T04:08:33.016Z,99.90
2023-03-20T04:11:01.377Z,99.90
2023-03-20T04:13:31.396Z,99.90
2023-03-20T04:15:59.834Z,99.90
2023-03-20T04:18:30.582Z,99.90
2023-03-20T04:20:59.340Z,99.90
2023-03-20T04:23:27.734Z,99.90
2023-03-20T04:25:56.182Z,99.90
2023-03-20T04:28:24.960Z,99.90
2023-03-20T04:30:58.803Z,99.90
2023-03-20T04:33:28.141Z,99.90
2023-03-20T04:35:56.988Z,99.90
2023-03-20T04:38:25.914Z,99.90
2023-03-20T04:40:56.900Z,99.90
2023-03-20T04:43:25.497Z,99.90
2023-03-20T04:45:54.238Z,99.90
2023-03-20T04:48:24.119Z,99.90
2023-03-20T04:50:52.462Z,99.90
2023-03-20T04:53:21.217Z,99.90
2023-03-20T04:55:51.231Z,1.00
2023-03-20T04:58:19.671Z,99.90
2023-03-20T05:01:07.237Z,99.90
2023-03-20T05:03:36.950Z,99.90
2023-03-20T05:06:05.708Z,1.00
2023-03-20T05:08:34.020Z,1.00
2023-03-20T05:11:02.498Z,1.00
2023-03-20T05:13:30.732Z,1.00
2023-03-20T05:18:47.692Z,1.00
2023-03-20T05:21:16.412Z,1.00
2023-03-20T05:23:44.684Z,1.00
2023-03-20T05:26:13.152Z,1.00
2023-03-20T05:28:41.914Z,1.00
2023-03-20T05:31:10.610Z,1.00
2023-03-20T05:33:40.132Z,1.00
2023-03-20T05:36:11.085Z,1.00
2023-03-20T05:38:39.438Z,1.00
2023-03-20T05:41:10.445Z,1.00
2023-03-20T05:43:38.977Z,1.00
2023-03-20T05:46:08.306Z,1.00
2023-03-20T05:48:37.166Z,1.00
2023-03-20T05:51:06.552Z,1.00
2023-03-20T05:53:37.358Z,1.00
2023-03-20T05:56:06.660Z,1.00
2023-03-20T05:58:35.276Z,1.00
2023-03-20T06:01:04.157Z,1.00
2023-03-20T06:03:33.413Z,1.00
2023-03-20T06:06:03.929Z,1.00
2023-03-20T06:08:41.189Z,1.00
2023-03-20T06:11:10.789Z,1.00
2023-03-20T06:13:43.156Z,1.00
2023-03-20T06:16:16.210Z,1.00
2023-03-20T06:18:57.047Z,1.00
2023-03-20T06:21:30.000Z,1.00
2023-03-20T06:24:21.704Z,1.00
2023-03-20T06:26:50.428Z,1.00
2023-03-20T06:29:32.738Z,1.00
2023-03-20T06:32:21.523Z,1.00
2023-03-20T06:34:58.666Z,1.00
2023-03-20T06:37:41.965Z,1.00
2023-03-20T06:40:19.233Z,1.00
2023-03-20T06:42:47.522Z,1.00
2023-03-20T06:45:23.238Z,1.00
2023-03-20T06:48:02.434Z,1.00
2023-03-20T06:50:37.516Z,1.00
2023-03-20T06:53:09.553Z,1.00
2023-03-20T06:55:40.565Z,1.00
2023-03-20T06:58:14.366Z,1.00
2023-03-20T07:00:44.472Z,1.00
2023-03-20T07:03:14.282Z,1.00
2023-03-20T07:05:45.438Z,1.00
2023-03-20T07:08:13.893Z,1.00
2023-03-20T07:10:52.225Z,99.90
2023-03-20T07:13:20.850Z,99.90
2023-03-20T07:16:03.455Z,1.00
2023-03-20T07:18:32.469Z,1.00
2023-03-20T07:21:03.288Z,1.00
2023-03-20T07:23:32.426Z,1.00
2023-03-20T07:26:02.443Z,1.00
2023-03-20T07:28:30.803Z,1.00
2023-03-20T07:31:01.462Z,1.00
2023-03-20T07:33:30.174Z,1.00
2023-03-20T07:35:59.028Z,1.00
2023-03-20T07:38:30.577Z,1.00
2023-03-20T07:41:01.011Z,1.00
2023-03-20T07:43:30.918Z,1.00
2023-03-20T07:45:59.191Z,1.00
2023-03-20T07:48:27.559Z,1.00
2023-03-20T07:51:09.683Z,1.00
2023-03-20T07:53:40.459Z,1.00
2023-03-20T07:56:09.951Z,1.00
2023-03-20T07:58:39.767Z,99.90
2023-03-20T08:01:08.155Z,1.00
2023-03-20T08:03:36.620Z,1.00
2023-03-20T08:06:07.938Z,1.00
2023-03-20T08:08:38.588Z,1.00
2023-03-20T08:11:08.218Z,99.90
2023-03-20T08:13:36.863Z,1.00
2023-03-20T08:16:07.772Z,1.00
2023-03-20T08:18:36.584Z,99.90
2023-03-20T08:21:06.392Z,99.90
2023-03-20T08:23:35.485Z,99.90
2023-03-20T08:26:05.287Z,99.90
2023-03-20T08:28:47.421Z,1.00
2023-03-20T08:31:23.970Z,1.00
2023-03-20T08:34:01.564Z,99.90
2023-03-20T08:36:31.126Z,99.90
2023-03-20T08:39:02.384Z,1.00
2023-03-20T08:41:31.100Z,99.90
2023-03-20T08:44:08.681Z,99.90
2023-03-20T08:46:39.959Z,99.90
2023-03-20T08:49:08.788Z,99.90
2023-03-20T08:51:40.612Z,1.00
2023-03-20T08:54:20.446Z,1.00
2023-03-20T08:56:56.349Z,99.90
2023-03-20T08:59:24.805Z,1.00
2023-03-20T09:01:54.519Z,1.00
2023-03-20T09:04:22.728Z,1.00
2023-03-20T09:06:51.928Z,1.00
2023-03-20T09:09:26.493Z,49.80
2023-03-20T09:11:56.098Z,99.90
2023-03-20T09:14:26.916Z,92.60
2023-03-20T09:16:56.882Z,1.00
2023-03-20T09:19:26.515Z,1.00
2023-03-20T09:21:57.051Z,1.00
2023-03-20T09:24:26.463Z,1.00
2023-03-20T09:26:56.132Z,1.00
2023-03-20T09:29:26.111Z,1.00
2023-03-20T09:32:18.403Z,1.00
2023-03-20T09:34:50.510Z,1.00
2023-03-20T09:37:18.765Z,1.00
2023-03-20T09:39:47.009Z,99.90
2023-03-20T09:42:28.179Z,99.90
2023-03-20T09:45:18.833Z,99.90
2023-03-20T09:47:57.934Z,99.90
2023-03-20T09:50:49.707Z,99.90
2023-03-20T09:53:25.259Z,1.00
2023-03-20T09:56:54.376Z,1.00
2023-03-20T09:59:25.064Z,1.00
2023-03-20T10:02:04.484Z,99.90
2023-03-20T10:04:34.922Z,99.90
2023-03-20T10:07:06.066Z,99.90
2023-03-20T10:09:35.029Z,99.90
2023-03-20T10:12:25.856Z,99.90
2023-03-20T10:14:59.753Z,99.90
2023-03-20T10:17:52.136Z,99.90
2023-03-20T10:20:31.329Z,99.90
2023-03-20T10:23:03.460Z,99.90
2023-03-20T10:25:33.999Z,99.90
2023-03-20T10:32:00.845Z,99.90
2023-03-20T10:34:43.632Z,99.90
2023-03-20T10:37:28.638Z,99.90
2023-03-20T10:40:28.349Z,99.90
2023-03-20T10:43:01.594Z,99.90
2023-03-20T10:45:39.371Z,99.90
2023-03-20T10:48:20.060Z,99.90
2023-03-20T10:51:11.975Z,99.90
2023-03-20T10:53:49.123Z,99.90
2023-03-20T10:56:37.369Z,99.90
2023-03-20T10:59:25.986Z,99.90
2023-03-20T11:01:54.491Z,99.90
2023-03-20T11:04:22.733Z,99.90
2023-03-20T11:06:59.626Z,99.90
2023-03-20T11:09:32.614Z,99.90
2023-03-20T11:12:03.312Z,99.90
2023-03-20T11:14:35.752Z,99.90
2023-03-20T11:17:10.081Z,99.90
2023-03-20T11:19:40.914Z,99.90
2023-03-20T11:22:28.415Z,92.10
2023-03-20T11:25:01.664Z,34.40
2023-03-20T11:27:33.548Z,18.60
2023-03-20T11:30:16.243Z,9.90
2023-03-20T11:32:50.080Z,1.00
2023-03-20T11:35:23.938Z,1.00
2023-03-20T11:37:54.735Z,1.00
2023-03-20T11:40:34.375Z,1.00
2023-03-20T11:43:10.207Z,1.00
2023-03-20T11:45:45.913Z,1.00
2023-03-20T11:48:31.908Z,1.00
2023-03-20T11:51:04.377Z,1.00
2023-03-20T11:53:35.678Z,1.00
2023-03-20T11:56:13.694Z,1.00
2023-03-20T11:59:23.218Z,1.00
2023-03-20T12:01:59.925Z,1.00
2023-03-20T12:04:33.408Z,1.00
2023-03-20T12:07:29.885Z,1.00
2023-03-20T12:10:30.058Z,1.00
2023-03-20T12:13:04.027Z,1.00
2023-03-20T12:15:41.844Z,1.00
2023-03-20T12:20:54.221Z,1.00
2023-03-20T12:23:30.024Z,1.00
2023-03-20T12:26:05.033Z,1.00
2023-03-20T12:28:42.598Z,1.00
2023-03-20T12:31:29.059Z,1.00
2023-03-20T12:34:04.351Z,1.00
2023-03-20T12:36:41.075Z,1.00
2023-03-20T12:42:22.654Z,1.00
2023-03-20T12:44:58.896Z,1.00
2023-03-20T12:47:53.187Z,1.00
2023-03-20T12:50:49.000Z,1.00
2023-03-20T12:53:45.667Z,1.00
2023-03-20T12:56:55.403Z,1.00
2023-03-20T12:59:40.391Z,1.00
2023-03-20T13:05:36.799Z,1.00
2023-03-20T13:12:49.715Z,1.00
2023-03-20T13:15:38.381Z,1.00
2023-03-20T13:18:15.828Z,1.00
2023-03-20T13:20:59.721Z,1.00
2023-03-20T13:24:22.249Z,1.00
2023-03-20T13:26:58.021Z,1.00
2023-03-20T13:29:35.624Z,1.00
2023-03-20T13:32:15.054Z,1.00
2023-03-20T13:35:10.276Z,1.00
2023-03-20T13:37:42.905Z,1.00
2023-03-20T13:47:02.865Z,1.00
2023-03-20T13:49:40.222Z,1.00
2023-03-20T13:52:13.646Z,1.00
2023-03-20T13:55:15.136Z,1.00
2023-03-20T13:58:10.532Z,1.00
2023-03-20T14:00:49.190Z,1.00
2023-03-20T14:03:25.915Z,1.00
2023-03-20T14:05:54.699Z,1.00
2023-03-20T14:08:44.723Z,1.00
2023-03-20T14:11:32.652Z,1.00
2023-03-20T14:14:51.741Z,1.00
2023-03-20T14:17:26.122Z,1.00
2023-03-20T14:19:59.580Z,1.00
2023-03-20T14:22:33.859Z,1.00
2023-03-20T14:25:08.349Z,1.00
2023-03-20T14:27:54.785Z,1.00
2023-03-20T14:34:10.891Z,1.00
2023-03-20T14:36:58.070Z,1.00
2023-03-20T14:39:48.552Z,1.00
2023-03-20T14:42:31.313Z,1.00
2023-03-20T14:45:51.341Z,1.00
2023-03-20T14:48:43.803Z,1.00
2023-03-20T14:51:25.965Z,1.00
2023-03-20T14:54:01.028Z,1.00
2023-03-20T14:56:41.911Z,1.00
2023-03-20T14:59:13.630Z,1.00
2023-03-20T15:01:59.222Z,1.00
2023-03-20T15:04:40.098Z,1.00
2023-03-20T15:07:17.001Z,1.00
2023-03-20T15:09:48.023Z,1.00
2023-03-20T15:12:20.842Z,1.00
2023-03-20T15:15:33.330Z,1.00
2023-03-20T15:18:13.826Z,1.00
2023-03-20T15:20:56.331Z,1.00
2023-03-20T15:23:28.254Z,1.00
2023-03-20T15:26:03.485Z,1.00
2023-03-20T15:28:32.898Z,1.00
2023-03-20T15:31:02.697Z,1.00
2023-03-20T15:33:37.168Z,1.00
2023-03-20T15:36:11.744Z,1.00
2023-03-20T15:38:59.684Z,99.90
2023-03-20T15:41:34.123Z,1.00
2023-03-20T15:44:17.119Z,5.80
2023-03-20T15:46:57.512Z,1.00
2023-03-20T15:49:27.164Z,1.00
2023-03-20T15:52:01.983Z,1.00
2023-03-20T15:54:52.029Z,1.00
2023-03-20T15:57:44.005Z,1.00
2023-03-20T16:00:26.820Z,1.00
2023-03-20T16:03:00.553Z,1.00
2023-03-20T16:05:42.630Z,1.00
2023-03-20T16:09:04.907Z,1.00
2023-03-20T16:11:43.713Z,1.00
2023-03-20T16:14:27.687Z,1.00
2023-03-20T16:17:19.553Z,1.00
2023-03-20T16:19:52.714Z,1.00
2023-03-20T16:22:27.799Z,1.00
2023-03-20T16:25:08.850Z,1.00
2023-03-20T16:28:07.301Z,1.00
2023-03-20T16:30:40.445Z,1.00
2023-03-20T16:33:24.063Z,1.00
2023-03-20T16:36:01.400Z,1.00
2023-03-20T16:38:41.451Z,1.00
2023-03-20T16:41:18.525Z,1.00
2023-03-20T16:43:52.923Z,1.00
2023-03-20T16:46:24.319Z,1.00
2023-03-20T16:48:54.112Z,1.00
2023-03-20T16:51:26.285Z,1.00
2023-03-20T16:53:59.007Z,1.00
2023-03-20T16:56:30.486Z,1.00
2023-03-20T16:59:08.944Z,1.00
2023-03-20T17:01:41.619Z,1.00
2023-03-20T17:04:22.452Z,1.00
2023-03-20T17:06:58.356Z,1.00
2023-03-20T17:09:28.894Z,1.00
2023-03-20T17:12:07.756Z,1.00
2023-03-20T17:14:38.246Z,1.00
2023-03-20T17:17:13.873Z,1.00
2023-03-20T17:19:42.969Z,1.00
2023-03-20T17:22:16.020Z,1.00
2023-03-20T17:24:44.946Z,1.00
2023-03-20T17:27:13.950Z,1.00
2023-03-20T17:29:43.964Z,1.00
2023-03-20T17:32:14.065Z,1.00
2023-03-20T17:34:42.947Z,1.00
2023-03-20T17:37:38.093Z,1.00
2023-03-20T17:40:08.898Z,1.00
2023-03-20T17:42:44.618Z,1.00
2023-03-20T17:45:19.198Z,1.00
2023-03-20T17:47:51.807Z,1.00
2023-03-20T17:50:31.267Z,1.00
2023-03-20T17:53:02.374Z,1.00
2023-03-20T17:55:30.753Z,1.00
2023-03-20T17:58:02.714Z,1.00
2023-03-20T18:00:35.058Z,1.00
2023-03-20T18:03:05.181Z,1.00
2023-03-20T18:05:39.635Z,1.00
2023-03-20T18:08:14.522Z,1.00
2023-03-20T18:10:46.600Z,1.00
2023-03-20T18:13:19.234Z,1.00
2023-03-20T18:15:52.163Z,1.00
2023-03-20T18:21:18.952Z,1.00
2023-03-20T18:23:49.360Z,1.00
2023-03-20T18:26:21.638Z,1.00
2023-03-20T18:28:52.308Z,1.00
2023-03-20T18:31:26.862Z,1.00
2023-03-20T18:34:07.669Z,1.00
2023-03-20T18:36:48.002Z,1.00
2023-03-20T18:39:20.127Z,1.00
2023-03-20T18:41:59.495Z,1.00
2023-03-20T18:45:33.012Z,1.00
2023-03-20T18:48:31.821Z,1.00
2023-03-20T18:51:02.972Z,1.00
2023-03-20T18:53:35.193Z,1.00
2023-03-20T18:56:07.258Z,1.00
2023-03-20T18:58:36.338Z,1.00
2023-03-20T19:01:05.963Z,1.00
2023-03-20T19:03:59.447Z,1.00
2023-03-20T19:06:32.621Z,1.00
2023-03-20T19:09:07.933Z,1.00
2023-03-20T19:11:38.742Z,1.00
2023-03-20T19:14:08.753Z,1.00
2023-03-20T19:16:41.165Z,1.00
2023-03-20T19:19:20.738Z,1.00
2023-03-20T19:21:52.243Z,1.00
2023-03-20T19:24:24.788Z,1.00
2023-03-20T19:26:57.447Z,1.00
2023-03-20T19:29:32.538Z,1.00
2023-03-20T19:35:58.834Z,1.00
2023-03-20T19:38:33.437Z,1.00
2023-03-20T19:41:15.608Z,1.00
2023-03-20T19:43:52.517Z,1.00
2023-03-20T19:46:39.663Z,1.00
2023-03-20T19:49:30.501Z,1.00
2023-03-20T19:52:08.529Z,1.00
2023-03-20T19:55:01.904Z,1.00
2023-03-20T19:57:33.777Z,1.00
2023-03-20T20:00:54.368Z,1.00
2023-03-20T20:03:29.630Z,1.00
2023-03-20T20:06:22.317Z,1.00
2023-03-20T20:08:53.106Z,1.00
2023-03-20T20:11:23.249Z,1.00
2023-03-20T20:14:07.730Z,1.00
2023-03-20T20:16:43.764Z,1.00
2023-03-20T20:19:14.320Z,1.00
2023-03-20T20:24:52.837Z,1.00
2023-03-20T20:27:34.154Z,1.00
2023-03-20T20:30:06.717Z,1.00
2023-03-20T20:32:47.387Z,1.00
2023-03-20T20:36:01.917Z,1.00
2023-03-20T20:38:49.332Z,1.00
2023-03-20T20:41:20.242Z,1.00
2023-03-20T20:44:14.448Z,1.00
2023-03-20T20:46:38.164Z,1.00
2023-03-20T20:49:18.675Z,1.00
2023-03-20T20:52:41.494Z,1.00
2023-03-20T20:55:25.281Z,1.00
2023-03-20T20:58:02.274Z,1.00
2023-03-20T21:00:47.671Z,1.00
2023-03-20T21:03:17.383Z,1.00
2023-03-20T21:05:45.988Z,1.00
2023-03-20T21:08:16.481Z,1.00
2023-03-20T21:10:46.722Z,1.00
2023-03-20T21:13:16.473Z,1.00
2023-03-20T21:15:45.701Z,1.00
2023-03-20T21:18:14.583Z,1.00
2023-03-20T21:20:42.774Z,1.00
2023-03-20T21:23:23.236Z,1.00
2023-03-20T21:25:52.864Z,1.00
2023-03-20T21:28:24.208Z,1.00
2023-03-20T21:31:20.609Z,1.00
2023-03-20T21:33:42.785Z,1.00
2023-03-20T21:36:12.269Z,1.00
2023-03-20T21:41:30.509Z,1.00
2023-03-20T21:44:03.735Z,1.00
2023-03-20T21:47:09.706Z,1.00
2023-03-20T21:53:12.082Z,1.00
2023-03-20T21:58:50.987Z,1.00
2023-03-20T22:01:42.034Z,1.00
2023-03-20T22:04:19.125Z,1.00
2023-03-20T22:07:18.502Z,1.00
2023-03-20T22:10:03.567Z,1.00
2023-03-20T22:32:44.862Z,1.00
2023-03-20T22:46:44.374Z,1.00
2023-03-20T22:49:09.019Z,1.00
2023-03-20T22:51:52.079Z,1.00
2023-03-20T22:54:30.733Z,1.00
2023-03-20T22:56:59.011Z,1.00
2023-03-20T22:59:27.271Z,1.00
2023-03-20T23:01:56.097Z,1.00
2023-03-20T23:04:24.364Z,1.00
2023-03-20T23:06:54.355Z,1.00
2023-03-20T23:09:22.985Z,1.00
2023-03-20T23:11:51.201Z,1.00
2023-03-20T23:14:22.108Z,1.00
2023-03-20T23:16:51.051Z,1.00
2023-03-20T23:19:19.647Z,1.00
2023-03-20T23:21:48.033Z,1.00
2023-03-20T23:24:28.820Z,1.00
2023-03-20T23:26:59.299Z,1.00
2023-03-20T23:29:28.992Z,1.00
2023-03-20T23:31:57.357Z,1.00
2023-03-20T23:34:25.865Z,1.00
2023-03-20T23:36:54.473Z,1.00
2023-03-20T23:39:27.555Z,1.00
2023-03-20T23:42:27.642Z,1.00
2023-03-20T23:44:56.266Z,1.00
2023-03-20T23:47:30.106Z,1.00
2023-03-20T23:50:04.518Z,1.00
2023-03-20T23:52:35.160Z,1.00
2023-03-20T23:55:06.987Z,1.00
2023-03-20T23:57:35.679Z,1.00
